sensor_id;sensor_type;location;lat;lon;timestamp;P1;durP1;ratioP1;P2;durP2;ratioP2
23300;SDS011;11819;51.394;12.340;2022-11-22T00:00:10;29.10;;;15.10;;
23300;SDS011;11819;51.394;12.340;2022-11-22T00:02:38;26.53;;;15.20;;
23300;SDS011;11819;51.394;12.340;2022-11-22T00:05:04;31.23;;;16.23;;
23300;SDS011;11819;51.394;12.340;2022-11-22T00:07:30;31.40;;;16.03;;
23300;SDS011;11819;51.394;12.340;2022-11-22T00:09:55;28.10;;;16.03;;
23300;SDS011;11819;51.394;12.340;2022-11-22T00:12:21;29.37;;;15.63;;
23300;SDS011;11819;51.394;12.340;2022-11-22T00:14:47;26.10;;;14.17;;
23300;SDS011;11819;51.394;12.340;2022-11-22T00:17:13;28.27;;;15.37;;
23300;SDS011;11819;51.394;12.340;2022-11-22T00:19:39;26.93;;;14.57;;
23300;SDS011;11819;51.394;12.340;2022-11-22T00:22:05;26.83;;;14.90;;
23300;SDS011;11819;51.394;12.340;2022-11-22T00:24:33;30.70;;;16.27;;
23300;SDS011;11819;51.394;12.340;2022-11-22T00:26:59;29.80;;;15.60;;
23300;SDS011;11819;51.394;12.340;2022-11-22T00:29:25;29.20;;;15.83;;
23300;SDS011;11819;51.394;12.340;2022-11-22T00:31:51;30.07;;;15.23;;
23300;SDS011;11819;51.394;12.340;2022-11-22T00:34:16;28.23;;;16.63;;
23300;SDS011;11819;51.394;12.340;2022-11-22T00:36:42;32.23;;;17.13;;
23300;SDS011;11819;51.394;12.340;2022-11-22T00:39:08;30.07;;;15.30;;
23300;SDS011;11819;51.394;12.340;2022-11-22T00:41:33;27.33;;;15.10;;
23300;SDS011;11819;51.394;12.340;2022-11-22T00:43:59;28.20;;;15.37;;
23300;SDS011;11819;51.394;12.340;2022-11-22T00:46:25;31.70;;;15.97;;
23300;SDS011;11819;51.394;12.340;2022-11-22T00:48:51;29.57;;;16.53;;
23300;SDS011;11819;51.394;12.340;2022-11-22T00:51:16;28.97;;;15.10;;
23300;SDS011;11819;51.394;12.340;2022-11-22T00:53:42;27.10;;;14.60;;
23300;SDS011;11819;51.394;12.340;2022-11-22T00:56:07;29.63;;;14.77;;
23300;SDS011;11819;51.394;12.340;2022-11-22T00:58:34;27.27;;;14.30;;
23300;SDS011;11819;51.394;12.340;2022-11-22T01:01:00;28.53;;;16.07;;
23300;SDS011;11819;51.394;12.340;2022-11-22T01:03:25;25.40;;;15.00;;
23300;SDS011;11819;51.394;12.340;2022-11-22T01:05:52;27.23;;;15.53;;
23300;SDS011;11819;51.394;12.340;2022-11-22T01:08:18;26.20;;;14.37;;
23300;SDS011;11819;51.394;12.340;2022-11-22T01:10:44;25.03;;;14.93;;
23300;SDS011;11819;51.394;12.340;2022-11-22T01:13:09;31.30;;;15.93;;
23300;SDS011;11819;51.394;12.340;2022-11-22T01:15:36;27.70;;;15.63;;
23300;SDS011;11819;51.394;12.340;2022-11-22T01:18:02;25.50;;;14.50;;
23300;SDS011;11819;51.394;12.340;2022-11-22T01:20:28;29.07;;;15.00;;
23300;SDS011;11819;51.394;12.340;2022-11-22T01:22:55;28.70;;;15.53;;
23300;SDS011;11819;51.394;12.340;2022-11-22T01:25:21;24.87;;;14.43;;
23300;SDS011;11819;51.394;12.340;2022-11-22T01:27:47;31.97;;;15.60;;
23300;SDS011;11819;51.394;12.340;2022-11-22T01:30:15;27.73;;;16.03;;
23300;SDS011;11819;51.394;12.340;2022-11-22T01:32:40;28.57;;;16.10;;
23300;SDS011;11819;51.394;12.340;2022-11-22T01:35:06;29.70;;;15.53;;
23300;SDS011;11819;51.394;12.340;2022-11-22T01:37:32;28.80;;;15.60;;
23300;SDS011;11819;51.394;12.340;2022-11-22T01:39:58;27.40;;;15.23;;
23300;SDS011;11819;51.394;12.340;2022-11-22T01:42:38;27.40;;;15.53;;
23300;SDS011;11819;51.394;12.340;2022-11-22T01:48:03;28.63;;;14.80;;
23300;SDS011;11819;51.394;12.340;2022-11-22T01:50:37;27.97;;;14.83;;
23300;SDS011;11819;51.394;12.340;2022-11-22T01:53:08;25.00;;;14.37;;
23300;SDS011;11819;51.394;12.340;2022-11-22T01:55:41;28.17;;;15.63;;
23300;SDS011;11819;51.394;12.340;2022-11-22T01:58:07;28.43;;;15.53;;
23300;SDS011;11819;51.394;12.340;2022-11-22T02:00:35;29.83;;;15.70;;
23300;SDS011;11819;51.394;12.340;2022-11-22T02:03:02;27.90;;;14.87;;
23300;SDS011;11819;51.394;12.340;2022-11-22T02:05:31;28.83;;;15.10;;
23300;SDS011;11819;51.394;12.340;2022-11-22T02:08:00;29.47;;;16.30;;
23300;SDS011;11819;51.394;12.340;2022-11-22T02:10:49;30.60;;;15.53;;
23300;SDS011;11819;51.394;12.340;2022-11-22T02:13:17;27.03;;;15.03;;
23300;SDS011;11819;51.394;12.340;2022-11-22T02:15:46;27.03;;;13.87;;
23300;SDS011;11819;51.394;12.340;2022-11-22T02:18:11;27.90;;;15.30;;
23300;SDS011;11819;51.394;12.340;2022-11-22T02:20:38;28.87;;;15.40;;
23300;SDS011;11819;51.394;12.340;2022-11-22T02:23:07;30.13;;;16.30;;
23300;SDS011;11819;51.394;12.340;2022-11-22T02:28:22;29.00;;;16.10;;
23300;SDS011;11819;51.394;12.340;2022-11-22T02:30:50;29.70;;;16.03;;
23300;SDS011;11819;51.394;12.340;2022-11-22T02:33:16;28.87;;;16.23;;
23300;SDS011;11819;51.394;12.340;2022-11-22T02:35:42;27.63;;;14.67;;
23300;SDS011;11819;51.394;12.340;2022-11-22T02:38:12;29.07;;;14.83;;
23300;SDS011;11819;51.394;12.340;2022-11-22T02:40:52;29.13;;;14.90;;
23300;SDS011;11819;51.394;12.340;2022-11-22T02:43:52;32.47;;;15.83;;
23300;SDS011;11819;51.394;12.340;2022-11-22T02:46:16;25.50;;;14.23;;
23300;SDS011;11819;51.394;12.340;2022-11-22T02:48:45;27.87;;;15.10;;
23300;SDS011;11819;51.394;12.340;2022-11-22T02:51:11;27.50;;;14.13;;
23300;SDS011;11819;51.394;12.340;2022-11-22T02:53:45;27.47;;;15.10;;
23300;SDS011;11819;51.394;12.340;2022-11-22T02:56:12;28.37;;;15.13;;
23300;SDS011;11819;51.394;12.340;2022-11-22T02:58:37;32.50;;;14.73;;
23300;SDS011;11819;51.394;12.340;2022-11-22T03:01:03;30.17;;;15.90;;
23300;SDS011;11819;51.394;12.340;2022-11-22T03:03:29;28.57;;;15.40;;
23300;SDS011;11819;51.394;12.340;2022-11-22T03:05:57;26.70;;;14.80;;
23300;SDS011;11819;51.394;12.340;2022-11-22T03:08:23;27.17;;;14.73;;
23300;SDS011;11819;51.394;12.340;2022-11-22T03:10:48;28.27;;;15.13;;
23300;SDS011;11819;51.394;12.340;2022-11-22T03:13:14;27.13;;;15.07;;
23300;SDS011;11819;51.394;12.340;2022-11-22T03:15:40;24.43;;;14.70;;
23300;SDS011;11819;51.394;12.340;2022-11-22T03:18:05;27.03;;;14.57;;
23300;SDS011;11819;51.394;12.340;2022-11-22T03:20:31;27.33;;;15.53;;
23300;SDS011;11819;51.394;12.340;2022-11-22T03:23:00;25.77;;;14.63;;
23300;SDS011;11819;51.394;12.340;2022-11-22T03:25:26;26.23;;;14.10;;
23300;SDS011;11819;51.394;12.340;2022-11-22T03:27:53;25.00;;;14.47;;
23300;SDS011;11819;51.394;12.340;2022-11-22T03:30:18;25.27;;;13.63;;
23300;SDS011;11819;51.394;12.340;2022-11-22T03:32:44;28.60;;;15.83;;
23300;SDS011;11819;51.394;12.340;2022-11-22T03:35:10;27.37;;;14.57;;
23300;SDS011;11819;51.394;12.340;2022-11-22T03:37:36;26.80;;;14.47;;
23300;SDS011;11819;51.394;12.340;2022-11-22T03:40:02;26.03;;;14.50;;
23300;SDS011;11819;51.394;12.340;2022-11-22T03:42:28;30.47;;;15.17;;
23300;SDS011;11819;51.394;12.340;2022-11-22T03:44:54;26.47;;;14.87;;
23300;SDS011;11819;51.394;12.340;2022-11-22T03:47:19;26.93;;;15.73;;
23300;SDS011;11819;51.394;12.340;2022-11-22T03:49:45;27.93;;;14.97;;
23300;SDS011;11819;51.394;12.340;2022-11-22T03:52:11;29.10;;;15.40;;
23300;SDS011;11819;51.394;12.340;2022-11-22T03:54:36;25.80;;;14.43;;
23300;SDS011;11819;51.394;12.340;2022-11-22T03:57:02;29.87;;;15.87;;
23300;SDS011;11819;51.394;12.340;2022-11-22T03:59:29;26.63;;;14.80;;
23300;SDS011;11819;51.394;12.340;2022-11-22T04:01:55;30.57;;;16.13;;
23300;SDS011;11819;51.394;12.340;2022-11-22T04:04:20;29.07;;;15.47;;
23300;SDS011;11819;51.394;12.340;2022-11-22T04:06:46;27.30;;;15.07;;
23300;SDS011;11819;51.394;12.340;2022-11-22T04:09:12;27.40;;;15.77;;
23300;SDS011;11819;51.394;12.340;2022-11-22T04:11:37;28.50;;;15.67;;
23300;SDS011;11819;51.394;12.340;2022-11-22T04:14:03;25.80;;;14.97;;
23300;SDS011;11819;51.394;12.340;2022-11-22T04:16:47;31.60;;;15.47;;
23300;SDS011;11819;51.394;12.340;2022-11-22T04:19:12;27.40;;;16.63;;
23300;SDS011;11819;51.394;12.340;2022-11-22T04:21:38;28.57;;;16.23;;
23300;SDS011;11819;51.394;12.340;2022-11-22T04:24:08;28.93;;;15.43;;
23300;SDS011;11819;51.394;12.340;2022-11-22T04:26:53;31.00;;;16.70;;
23300;SDS011;11819;51.394;12.340;2022-11-22T04:29:20;29.50;;;15.20;;
23300;SDS011;11819;51.394;12.340;2022-11-22T04:31:46;28.30;;;14.70;;
23300;SDS011;11819;51.394;12.340;2022-11-22T04:34:31;27.53;;;14.60;;
23300;SDS011;11819;51.394;12.340;2022-11-22T04:36:57;30.67;;;16.37;;
23300;SDS011;11819;51.394;12.340;2022-11-22T04:39:23;30.23;;;17.07;;
23300;SDS011;11819;51.394;12.340;2022-11-22T04:41:53;28.93;;;15.90;;
23300;SDS011;11819;51.394;12.340;2022-11-22T04:44:40;28.43;;;15.47;;
23300;SDS011;11819;51.394;12.340;2022-11-22T04:47:07;29.20;;;16.80;;
23300;SDS011;11819;51.394;12.340;2022-11-22T04:49:34;27.00;;;15.10;;
23300;SDS011;11819;51.394;12.340;2022-11-22T04:52:00;27.67;;;16.23;;
23300;SDS011;11819;51.394;12.340;2022-11-22T04:54:45;30.17;;;16.60;;
23300;SDS011;11819;51.394;12.340;2022-11-22T04:57:10;26.90;;;15.23;;
23300;SDS011;11819;51.394;12.340;2022-11-22T04:59:36;27.77;;;15.73;;
23300;SDS011;11819;51.394;12.340;2022-11-22T05:02:02;29.07;;;14.53;;
23300;SDS011;11819;51.394;12.340;2022-11-22T05:04:27;26.57;;;14.77;;
23300;SDS011;11819;51.394;12.340;2022-11-22T05:06:53;27.70;;;15.33;;
23300;SDS011;11819;51.394;12.340;2022-11-22T05:09:20;28.67;;;15.03;;
23300;SDS011;11819;51.394;12.340;2022-11-22T05:11:46;27.97;;;14.60;;
23300;SDS011;11819;51.394;12.340;2022-11-22T05:14:12;25.87;;;14.70;;
23300;SDS011;11819;51.394;12.340;2022-11-22T05:16:37;26.77;;;15.30;;
23300;SDS011;11819;51.394;12.340;2022-11-22T05:19:03;28.33;;;15.03;;
23300;SDS011;11819;51.394;12.340;2022-11-22T05:21:29;27.27;;;15.67;;
23300;SDS011;11819;51.394;12.340;2022-11-22T05:23:54;27.97;;;15.00;;
23300;SDS011;11819;51.394;12.340;2022-11-22T05:28:54;29.83;;;15.33;;
23300;SDS011;11819;51.394;12.340;2022-11-22T05:31:22;27.83;;;15.13;;
23300;SDS011;11819;51.394;12.340;2022-11-22T05:33:49;25.67;;;14.70;;
23300;SDS011;11819;51.394;12.340;2022-11-22T05:36:16;25.40;;;14.97;;
23300;SDS011;11819;51.394;12.340;2022-11-22T05:38:42;28.93;;;16.07;;
23300;SDS011;11819;51.394;12.340;2022-11-22T05:41:09;28.13;;;15.57;;
23300;SDS011;11819;51.394;12.340;2022-11-22T05:43:36;27.33;;;15.77;;
23300;SDS011;11819;51.394;12.340;2022-11-22T05:48:37;27.07;;;15.97;;
23300;SDS011;11819;51.394;12.340;2022-11-22T05:51:05;30.43;;;16.60;;
23300;SDS011;11819;51.394;12.340;2022-11-22T05:53:32;26.10;;;15.33;;
23300;SDS011;11819;51.394;12.340;2022-11-22T05:56:06;29.97;;;16.47;;
23300;SDS011;11819;51.394;12.340;2022-11-22T05:58:36;28.27;;;16.13;;
23300;SDS011;11819;51.394;12.340;2022-11-22T06:01:07;30.13;;;16.10;;
23300;SDS011;11819;51.394;12.340;2022-11-22T06:03:36;30.30;;;16.37;;
23300;SDS011;11819;51.394;12.340;2022-11-22T06:06:03;29.73;;;16.63;;
23300;SDS011;11819;51.394;12.340;2022-11-22T06:08:31;30.43;;;16.67;;
23300;SDS011;11819;51.394;12.340;2022-11-22T06:13:45;30.77;;;16.17;;
23300;SDS011;11819;51.394;12.340;2022-11-22T06:16:11;28.93;;;17.30;;
23300;SDS011;11819;51.394;12.340;2022-11-22T06:18:38;24.97;;;15.30;;
23300;SDS011;11819;51.394;12.340;2022-11-22T06:21:05;30.43;;;16.47;;
23300;SDS011;11819;51.394;12.340;2022-11-22T06:23:32;32.53;;;17.23;;
23300;SDS011;11819;51.394;12.340;2022-11-22T06:25:58;32.70;;;17.90;;
23300;SDS011;11819;51.394;12.340;2022-11-22T06:28:26;40.37;;;18.20;;
23300;SDS011;11819;51.394;12.340;2022-11-22T06:30:53;30.87;;;16.53;;
23300;SDS011;11819;51.394;12.340;2022-11-22T06:33:19;32.00;;;16.80;;
23300;SDS011;11819;51.394;12.340;2022-11-22T06:35:44;32.57;;;16.43;;
23300;SDS011;11819;51.394;12.340;2022-11-22T06:38:10;26.07;;;16.20;;
23300;SDS011;11819;51.394;12.340;2022-11-22T06:40:36;28.77;;;16.30;;
23300;SDS011;11819;51.394;12.340;2022-11-22T06:43:03;26.77;;;15.00;;
23300;SDS011;11819;51.394;12.340;2022-11-22T06:45:30;31.03;;;17.13;;
23300;SDS011;11819;51.394;12.340;2022-11-22T06:47:58;33.43;;;17.33;;
23300;SDS011;11819;51.394;12.340;2022-11-22T06:50:25;30.47;;;16.67;;
23300;SDS011;11819;51.394;12.340;2022-11-22T06:52:51;27.80;;;16.33;;
23300;SDS011;11819;51.394;12.340;2022-11-22T06:55:23;32.00;;;17.27;;
23300;SDS011;11819;51.394;12.340;2022-11-22T06:57:51;31.20;;;17.17;;
23300;SDS011;11819;51.394;12.340;2022-11-22T07:00:16;33.13;;;17.27;;
23300;SDS011;11819;51.394;12.340;2022-11-22T07:02:45;28.60;;;17.20;;
23300;SDS011;11819;51.394;12.340;2022-11-22T07:05:11;31.40;;;17.17;;
23300;SDS011;11819;51.394;12.340;2022-11-22T07:07:37;30.73;;;17.17;;
23300;SDS011;11819;51.394;12.340;2022-11-22T07:10:03;30.47;;;16.30;;
23300;SDS011;11819;51.394;12.340;2022-11-22T07:12:28;26.50;;;15.33;;
23300;SDS011;11819;51.394;12.340;2022-11-22T07:14:54;29.30;;;16.40;;
23300;SDS011;11819;51.394;12.340;2022-11-22T07:19:52;26.93;;;15.47;;
23300;SDS011;11819;51.394;12.340;2022-11-22T07:22:17;25.23;;;15.60;;
23300;SDS011;11819;51.394;12.340;2022-11-22T07:24:43;30.27;;;17.23;;
23300;SDS011;11819;51.394;12.340;2022-11-22T07:27:10;30.47;;;17.07;;
23300;SDS011;11819;51.394;12.340;2022-11-22T07:29:35;30.03;;;16.73;;
23300;SDS011;11819;51.394;12.340;2022-11-22T07:32:01;28.77;;;17.10;;
23300;SDS011;11819;51.394;12.340;2022-11-22T07:34:26;29.93;;;17.13;;
23300;SDS011;11819;51.394;12.340;2022-11-22T07:36:52;28.37;;;16.27;;
23300;SDS011;11819;51.394;12.340;2022-11-22T07:39:19;28.13;;;16.13;;
23300;SDS011;11819;51.394;12.340;2022-11-22T07:41:44;26.97;;;15.97;;
23300;SDS011;11819;51.394;12.340;2022-11-22T07:44:10;29.20;;;16.67;;
23300;SDS011;11819;51.394;12.340;2022-11-22T07:46:36;28.57;;;15.93;;
23300;SDS011;11819;51.394;12.340;2022-11-22T07:49:01;30.80;;;16.40;;
23300;SDS011;11819;51.394;12.340;2022-11-22T07:51:27;30.23;;;17.57;;
23300;SDS011;11819;51.394;12.340;2022-11-22T07:53:54;30.97;;;16.50;;
23300;SDS011;11819;51.394;12.340;2022-11-22T07:56:20;30.27;;;17.07;;
23300;SDS011;11819;51.394;12.340;2022-11-22T07:58:46;33.00;;;17.20;;
23300;SDS011;11819;51.394;12.340;2022-11-22T08:01:13;30.40;;;16.93;;
23300;SDS011;11819;51.394;12.340;2022-11-22T08:03:40;30.33;;;17.27;;
23300;SDS011;11819;51.394;12.340;2022-11-22T08:06:07;31.27;;;16.83;;
23300;SDS011;11819;51.394;12.340;2022-11-22T08:08:34;35.50;;;18.03;;
23300;SDS011;11819;51.394;12.340;2022-11-22T08:11:01;28.77;;;16.47;;
23300;SDS011;11819;51.394;12.340;2022-11-22T08:13:27;29.17;;;16.60;;
23300;SDS011;11819;51.394;12.340;2022-11-22T08:15:54;29.73;;;17.83;;
23300;SDS011;11819;51.394;12.340;2022-11-22T08:18:20;31.40;;;16.53;;
23300;SDS011;11819;51.394;12.340;2022-11-22T08:20:46;30.03;;;17.47;;
23300;SDS011;11819;51.394;12.340;2022-11-22T08:23:11;30.10;;;17.00;;
23300;SDS011;11819;51.394;12.340;2022-11-22T08:25:37;29.03;;;16.93;;
23300;SDS011;11819;51.394;12.340;2022-11-22T08:28:02;28.57;;;15.93;;
23300;SDS011;11819;51.394;12.340;2022-11-22T08:30:28;29.57;;;16.60;;
23300;SDS011;11819;51.394;12.340;2022-11-22T08:32:54;30.23;;;16.90;;
23300;SDS011;11819;51.394;12.340;2022-11-22T08:35:20;30.80;;;17.23;;
23300;SDS011;11819;51.394;12.340;2022-11-22T08:37:46;31.53;;;17.10;;
23300;SDS011;11819;51.394;12.340;2022-11-22T08:40:11;32.17;;;18.30;;
23300;SDS011;11819;51.394;12.340;2022-11-22T08:42:37;27.47;;;15.70;;
23300;SDS011;11819;51.394;12.340;2022-11-22T08:45:04;28.30;;;16.10;;
23300;SDS011;11819;51.394;12.340;2022-11-22T08:47:30;33.53;;;17.23;;
23300;SDS011;11819;51.394;12.340;2022-11-22T08:49:55;27.80;;;16.43;;
23300;SDS011;11819;51.394;12.340;2022-11-22T08:52:21;29.83;;;16.43;;
23300;SDS011;11819;51.394;12.340;2022-11-22T08:54:47;30.57;;;15.93;;
23300;SDS011;11819;51.394;12.340;2022-11-22T08:57:13;28.33;;;17.30;;
23300;SDS011;11819;51.394;12.340;2022-11-22T08:59:38;28.90;;;15.97;;
23300;SDS011;11819;51.394;12.340;2022-11-22T09:02:05;29.53;;;17.07;;
23300;SDS011;11819;51.394;12.340;2022-11-22T09:04:30;29.10;;;17.93;;
23300;SDS011;11819;51.394;12.340;2022-11-22T09:06:56;26.73;;;16.10;;
23300;SDS011;11819;51.394;12.340;2022-11-22T09:09:24;29.57;;;16.77;;
23300;SDS011;11819;51.394;12.340;2022-11-22T09:11:50;31.17;;;17.43;;
23300;SDS011;11819;51.394;12.340;2022-11-22T09:14:15;26.90;;;16.80;;
23300;SDS011;11819;51.394;12.340;2022-11-22T09:16:41;31.50;;;16.97;;
23300;SDS011;11819;51.394;12.340;2022-11-22T09:19:06;26.43;;;15.97;;
23300;SDS011;11819;51.394;12.340;2022-11-22T09:21:32;25.93;;;15.93;;
23300;SDS011;11819;51.394;12.340;2022-11-22T09:23:58;28.47;;;15.33;;
23300;SDS011;11819;51.394;12.340;2022-11-22T09:26:23;26.17;;;15.60;;
23300;SDS011;11819;51.394;12.340;2022-11-22T09:28:49;24.93;;;14.70;;
23300;SDS011;11819;51.394;12.340;2022-11-22T09:31:18;28.00;;;15.53;;
23300;SDS011;11819;51.394;12.340;2022-11-22T09:33:45;25.57;;;15.43;;
23300;SDS011;11819;51.394;12.340;2022-11-22T09:36:14;25.27;;;15.13;;
23300;SDS011;11819;51.394;12.340;2022-11-22T09:38:40;25.90;;;14.77;;
23300;SDS011;11819;51.394;12.340;2022-11-22T09:41:18;26.07;;;15.67;;
23300;SDS011;11819;51.394;12.340;2022-11-22T09:55:08;26.53;;;15.50;;
23300;SDS011;11819;51.394;12.340;2022-11-22T09:57:46;26.47;;;14.97;;
23300;SDS011;11819;51.394;12.340;2022-11-22T10:00:21;25.80;;;14.30;;
23300;SDS011;11819;51.394;12.340;2022-11-22T10:03:06;26.83;;;16.63;;
23300;SDS011;11819;51.394;12.340;2022-11-22T10:10:56;26.27;;;15.43;;
23300;SDS011;11819;51.394;12.340;2022-11-22T10:13:36;23.73;;;14.57;;
23300;SDS011;11819;51.394;12.340;2022-11-22T10:16:15;24.90;;;14.97;;
23300;SDS011;11819;51.394;12.340;2022-11-22T10:21:31;24.87;;;14.30;;
23300;SDS011;11819;51.394;12.340;2022-11-22T10:23:56;26.03;;;15.07;;
23300;SDS011;11819;51.394;12.340;2022-11-22T10:32:12;27.17;;;14.93;;
23300;SDS011;11819;51.394;12.340;2022-11-22T10:40:19;21.20;;;13.97;;
23300;SDS011;11819;51.394;12.340;2022-11-22T10:45:39;25.10;;;15.00;;
23300;SDS011;11819;51.394;12.340;2022-11-22T10:48:28;25.47;;;15.67;;
23300;SDS011;11819;51.394;12.340;2022-11-22T10:57:02;24.40;;;14.57;;
23300;SDS011;11819;51.394;12.340;2022-11-22T11:02:39;25.27;;;15.63;;
23300;SDS011;11819;51.394;12.340;2022-11-22T11:05:19;23.53;;;15.53;;
23300;SDS011;11819;51.394;12.340;2022-11-22T11:07:53;27.50;;;16.23;;
23300;SDS011;11819;51.394;12.340;2022-11-22T11:10:20;27.20;;;16.87;;
23300;SDS011;11819;51.394;12.340;2022-11-22T11:15:37;26.40;;;15.63;;
23300;SDS011;11819;51.394;12.340;2022-11-22T11:18:09;27.37;;;15.33;;
23300;SDS011;11819;51.394;12.340;2022-11-22T11:20:40;26.67;;;16.00;;
23300;SDS011;11819;51.394;12.340;2022-11-22T11:23:10;25.77;;;15.77;;
23300;SDS011;11819;51.394;12.340;2022-11-22T11:25:37;23.63;;;14.67;;
23300;SDS011;11819;51.394;12.340;2022-11-22T11:28:21;25.37;;;14.20;;
23300;SDS011;11819;51.394;12.340;2022-11-22T11:33:29;22.53;;;14.93;;
23300;SDS011;11819;51.394;12.340;2022-11-22T11:36:00;28.30;;;15.73;;
23300;SDS011;11819;51.394;12.340;2022-11-22T11:41:19;25.77;;;15.13;;
23300;SDS011;11819;51.394;12.340;2022-11-22T11:43:54;26.13;;;14.60;;
23300;SDS011;11819;51.394;12.340;2022-11-22T11:46:22;25.97;;;16.37;;
23300;SDS011;11819;51.394;12.340;2022-11-22T11:48:52;27.87;;;16.57;;
23300;SDS011;11819;51.394;12.340;2022-11-22T11:51:41;26.53;;;16.30;;
23300;SDS011;11819;51.394;12.340;2022-11-22T11:54:15;27.33;;;16.80;;
23300;SDS011;11819;51.394;12.340;2022-11-22T11:56:58;27.30;;;16.77;;
23300;SDS011;11819;51.394;12.340;2022-11-22T11:59:40;24.97;;;16.23;;
23300;SDS011;11819;51.394;12.340;2022-11-22T12:07:30;21.03;;;13.33;;
23300;SDS011;11819;51.394;12.340;2022-11-22T12:10:22;19.80;;;12.43;;
23300;SDS011;11819;51.394;12.340;2022-11-22T12:12:57;21.27;;;12.73;;
23300;SDS011;11819;51.394;12.340;2022-11-22T12:15:53;22.90;;;13.37;;
23300;SDS011;11819;51.394;12.340;2022-11-22T12:27:13;23.10;;;11.57;;
23300;SDS011;11819;51.394;12.340;2022-11-22T12:29:39;18.77;;;11.27;;
23300;SDS011;11819;51.394;12.340;2022-11-22T12:32:21;21.77;;;12.27;;
23300;SDS011;11819;51.394;12.340;2022-11-22T12:35:02;21.87;;;12.97;;
23300;SDS011;11819;51.394;12.340;2022-11-22T12:37:39;22.40;;;13.50;;
23300;SDS011;11819;51.394;12.340;2022-11-22T12:43:21;21.47;;;12.60;;
23300;SDS011;11819;51.394;12.340;2022-11-22T12:46:11;20.27;;;12.50;;
23300;SDS011;11819;51.394;12.340;2022-11-22T12:48:45;18.53;;;11.97;;
23300;SDS011;11819;51.394;12.340;2022-11-22T12:51:38;19.40;;;12.07;;
23300;SDS011;11819;51.394;12.340;2022-11-22T12:54:08;20.47;;;12.00;;
23300;SDS011;11819;51.394;12.340;2022-11-22T12:56:43;19.17;;;12.80;;
23300;SDS011;11819;51.394;12.340;2022-11-22T12:59:31;19.37;;;11.57;;
23300;SDS011;11819;51.394;12.340;2022-11-22T13:05:11;19.07;;;12.77;;
23300;SDS011;11819;51.394;12.340;2022-11-22T13:07:50;17.80;;;11.67;;
23300;SDS011;11819;51.394;12.340;2022-11-22T13:10:47;20.33;;;12.23;;
23300;SDS011;11819;51.394;12.340;2022-11-22T13:13:22;22.33;;;12.43;;
23300;SDS011;11819;51.394;12.340;2022-11-22T13:15:51;20.30;;;12.40;;
23300;SDS011;11819;51.394;12.340;2022-11-22T13:18:24;21.30;;;13.13;;
23300;SDS011;11819;51.394;12.340;2022-11-22T13:21:10;19.63;;;12.57;;
23300;SDS011;11819;51.394;12.340;2022-11-22T13:24:09;21.90;;;11.90;;
23300;SDS011;11819;51.394;12.340;2022-11-22T13:26:46;23.07;;;12.73;;
23300;SDS011;11819;51.394;12.340;2022-11-22T13:29:33;18.67;;;12.50;;
23300;SDS011;11819;51.394;12.340;2022-11-22T13:34:30;19.53;;;11.93;;
23300;SDS011;11819;51.394;12.340;2022-11-22T13:37:03;20.17;;;11.87;;
23300;SDS011;11819;51.394;12.340;2022-11-22T13:39:37;21.53;;;12.33;;
23300;SDS011;11819;51.394;12.340;2022-11-22T13:42:16;18.80;;;12.43;;
23300;SDS011;11819;51.394;12.340;2022-11-22T13:49:47;19.37;;;12.10;;
23300;SDS011;11819;51.394;12.340;2022-11-22T13:57:23;21.50;;;12.83;;
23300;SDS011;11819;51.394;12.340;2022-11-22T14:02:43;21.90;;;12.83;;
23300;SDS011;11819;51.394;12.340;2022-11-22T14:07:57;18.47;;;12.03;;
23300;SDS011;11819;51.394;12.340;2022-11-22T14:10:32;20.77;;;13.30;;
23300;SDS011;11819;51.394;12.340;2022-11-22T14:13:37;19.03;;;11.97;;
23300;SDS011;11819;51.394;12.340;2022-11-22T14:19:26;20.83;;;12.30;;
23300;SDS011;11819;51.394;12.340;2022-11-22T14:24:48;20.77;;;12.50;;
23300;SDS011;11819;51.394;12.340;2022-11-22T14:32:24;19.37;;;12.30;;
23300;SDS011;11819;51.394;12.340;2022-11-22T14:47:37;20.00;;;12.40;;
23300;SDS011;11819;51.394;12.340;2022-11-22T14:50:08;19.17;;;12.33;;
23300;SDS011;11819;51.394;12.340;2022-11-22T14:52:57;20.03;;;12.00;;
23300;SDS011;11819;51.394;12.340;2022-11-22T14:55:31;21.43;;;12.57;;
23300;SDS011;11819;51.394;12.340;2022-11-22T14:58:10;19.37;;;12.43;;
23300;SDS011;11819;51.394;12.340;2022-11-22T15:09:43;22.23;;;14.40;;
23300;SDS011;11819;51.394;12.340;2022-11-22T15:12:38;21.37;;;13.33;;
23300;SDS011;11819;51.394;12.340;2022-11-22T15:17:52;23.40;;;14.83;;
23300;SDS011;11819;51.394;12.340;2022-11-22T15:20:33;23.27;;;14.57;;
23300;SDS011;11819;51.394;12.340;2022-11-22T15:23:05;22.50;;;13.60;;
23300;SDS011;11819;51.394;12.340;2022-11-22T15:25:31;22.57;;;13.97;;
23300;SDS011;11819;51.394;12.340;2022-11-22T15:27:56;28.27;;;15.20;;
23300;SDS011;11819;51.394;12.340;2022-11-22T15:30:26;22.67;;;13.77;;
23300;SDS011;11819;51.394;12.340;2022-11-22T15:32:52;22.23;;;14.17;;
23300;SDS011;11819;51.394;12.340;2022-11-22T15:35:20;25.20;;;14.70;;
23300;SDS011;11819;51.394;12.340;2022-11-22T15:37:55;27.80;;;15.07;;
23300;SDS011;11819;51.394;12.340;2022-11-22T15:40:35;21.40;;;14.53;;
23300;SDS011;11819;51.394;12.340;2022-11-22T15:43:03;22.93;;;14.63;;
23300;SDS011;11819;51.394;12.340;2022-11-22T15:45:31;23.20;;;14.90;;
23300;SDS011;11819;51.394;12.340;2022-11-22T15:48:03;23.40;;;14.87;;
23300;SDS011;11819;51.394;12.340;2022-11-22T15:50:31;22.83;;;15.27;;
23300;SDS011;11819;51.394;12.340;2022-11-22T15:53:06;23.03;;;15.17;;
23300;SDS011;11819;51.394;12.340;2022-11-22T15:58:22;28.57;;;17.67;;
23300;SDS011;11819;51.394;12.340;2022-11-22T16:00:49;26.83;;;16.70;;
23300;SDS011;11819;51.394;12.340;2022-11-22T16:03:22;27.33;;;15.43;;
23300;SDS011;11819;51.394;12.340;2022-11-22T16:05:50;26.57;;;16.17;;
23300;SDS011;11819;51.394;12.340;2022-11-22T16:08:18;25.83;;;16.23;;
23300;SDS011;11819;51.394;12.340;2022-11-22T16:10:47;24.20;;;16.30;;
23300;SDS011;11819;51.394;12.340;2022-11-22T16:15:44;26.67;;;16.80;;
23300;SDS011;11819;51.394;12.340;2022-11-22T16:18:29;27.07;;;17.47;;
23300;SDS011;11819;51.394;12.340;2022-11-22T16:20:59;26.13;;;15.97;;
23300;SDS011;11819;51.394;12.340;2022-11-22T16:23:45;25.10;;;14.90;;
23300;SDS011;11819;51.394;12.340;2022-11-22T16:28:49;26.60;;;15.73;;
23300;SDS011;11819;51.394;12.340;2022-11-22T16:31:20;21.53;;;14.23;;
23300;SDS011;11819;51.394;12.340;2022-11-22T16:33:46;24.03;;;14.77;;
23300;SDS011;11819;51.394;12.340;2022-11-22T16:36:13;23.23;;;14.53;;
23300;SDS011;11819;51.394;12.340;2022-11-22T16:38:40;29.17;;;14.37;;
23300;SDS011;11819;51.394;12.340;2022-11-22T16:41:11;21.33;;;13.37;;
23300;SDS011;11819;51.394;12.340;2022-11-22T16:43:48;22.53;;;13.83;;
23300;SDS011;11819;51.394;12.340;2022-11-22T16:46:18;22.20;;;14.13;;
23300;SDS011;11819;51.394;12.340;2022-11-22T16:48:44;20.80;;;13.33;;
23300;SDS011;11819;51.394;12.340;2022-11-22T16:51:28;23.57;;;13.87;;